ΕΜΥ, Εθνική Μετεωρολογική Υπηρεσία - Δελτία Καιρού, Προγνώσεις

ΑΕΡΟΝΑΥΤΙΛΙΑ

GREEK AIRPORTS CODES

LGKA 271700Z AUTO 18008KT 120V210 //// // ////// 18/08 Q1014 RE//=

EUROPEAN AIRPORTS CODES